sensor_id;sensor_type;location;lat;lon;timestamp;temperature;humidity
30467;DHT22;17258;52.560;13.046;2023-07-20T00:03:13;22.00;46.50
30467;DHT22;17258;52.560;13.046;2023-07-20T00:13:19;21.90;47.80
30467;DHT22;17258;52.560;13.046;2023-07-20T00:23:21;21.90;47.00
30467;DHT22;17258;52.560;13.046;2023-07-20T00:33:22;21.90;47.30
30467;DHT22;17258;52.560;13.046;2023-07-20T00:43:23;21.80;47.80
30467;DHT22;17258;52.560;13.046;2023-07-20T00:53:24;21.60;47.30
30467;DHT22;17258;52.560;13.046;2023-07-20T01:03:24;21.50;47.40
30467;DHT22;17258;52.560;13.046;2023-07-20T01:13:25;21.40;47.50
30467;DHT22;17258;52.560;13.046;2023-07-20T01:23:47;21.30;47.80
30467;DHT22;17258;52.560;13.046;2023-07-20T01:33:56;21.20;49.00
30467;DHT22;17258;52.560;13.046;2023-07-20T01:43:58;21.20;48.40
30467;DHT22;17258;52.560;13.046;2023-07-20T01:54:02;21.20;48.60
30467;DHT22;17258;52.560;13.046;2023-07-20T02:04:03;21.10;48.60
30467;DHT22;17258;52.560;13.046;2023-07-20T02:14:03;21.10;48.70
30467;DHT22;17258;52.560;13.046;2023-07-20T02:24:04;21.10;49.00
30467;DHT22;17258;52.560;13.046;2023-07-20T02:34:06;21.10;49.00
30467;DHT22;17258;52.560;13.046;2023-07-20T02:44:06;21.20;49.30
30467;DHT22;17258;52.560;13.046;2023-07-20T02:54:07;21.10;49.30
30467;DHT22;17258;52.560;13.046;2023-07-20T03:04:08;21.10;49.60
30467;DHT22;17258;52.560;13.046;2023-07-20T03:14:12;21.10;49.80
30467;DHT22;17258;52.560;13.046;2023-07-20T03:24:13;21.10;50.00
30467;DHT22;17258;52.560;13.046;2023-07-20T03:34:13;21.20;50.20
30467;DHT22;17258;52.560;13.046;2023-07-20T03:44:14;21.10;50.30
30467;DHT22;17258;52.560;13.046;2023-07-20T03:54:15;21.10;50.40
30467;DHT22;17258;52.560;13.046;2023-07-20T04:04:16;21.10;50.50
30467;DHT22;17258;52.560;13.046;2023-07-20T04:14:17;21.10;50.80
30467;DHT22;17258;52.560;13.046;2023-07-20T04:24:17;21.10;50.90
30467;DHT22;17258;52.560;13.046;2023-07-20T04:34:18;21.10;51.00
30467;DHT22;17258;52.560;13.046;2023-07-20T04:44:18;21.10;51.10
30467;DHT22;17258;52.560;13.046;2023-07-20T04:54:19;21.10;51.20
30467;DHT22;17258;52.560;13.046;2023-07-20T05:04:20;21.20;51.30
30467;DHT22;17258;52.560;13.046;2023-07-20T05:14:20;21.20;51.50
30467;DHT22;17258;52.560;13.046;2023-07-20T05:24:21;21.20;51.70
30467;DHT22;17258;52.560;13.046;2023-07-20T05:34:22;21.20;51.80
30467;DHT22;17258;52.560;13.046;2023-07-20T05:44:22;21.20;51.80
30467;DHT22;17258;52.560;13.046;2023-07-20T05:54:26;21.20;52.10
30467;DHT22;17258;52.560;13.046;2023-07-20T06:04:26;21.30;52.30
30467;DHT22;17258;52.560;13.046;2023-07-20T06:14:27;21.40;52.10
30467;DHT22;17258;52.560;13.046;2023-07-20T06:24:28;21.40;52.30
30467;DHT22;17258;52.560;13.046;2023-07-20T06:34:28;21.60;52.60
30467;DHT22;17258;52.560;13.046;2023-07-20T06:44:30;21.70;52.10
30467;DHT22;17258;52.560;13.046;2023-07-20T06:54:30;21.80;52.00
30467;DHT22;17258;52.560;13.046;2023-07-20T07:04:31;22.00;52.20
30467;DHT22;17258;52.560;13.046;2023-07-20T07:14:32;22.10;52.10
30467;DHT22;17258;52.560;13.046;2023-07-20T07:24:32;22.40;51.90
30467;DHT22;17258;52.560;13.046;2023-07-20T07:34:36;22.50;51.30
30467;DHT22;17258;52.560;13.046;2023-07-20T07:44:37;22.70;51.40
30467;DHT22;17258;52.560;13.046;2023-07-20T07:54:37;22.90;51.10
30467;DHT22;17258;52.560;13.046;2023-07-20T08:04:38;23.00;51.10
30467;DHT22;17258;52.560;13.046;2023-07-20T08:14:39;23.20;50.90
30467;DHT22;17258;52.560;13.046;2023-07-20T08:24:40;23.40;50.60
30467;DHT22;17258;52.560;13.046;2023-07-20T08:34:42;23.70;50.40
30467;DHT22;17258;52.560;13.046;2023-07-20T08:44:43;23.90;50.20
30467;DHT22;17258;52.560;13.046;2023-07-20T08:54:45;24.10;50.30
30467;DHT22;17258;52.560;13.046;2023-07-20T09:04:46;24.30;49.80
30467;DHT22;17258;52.560;13.046;2023-07-20T09:14:46;24.50;48.90
30467;DHT22;17258;52.560;13.046;2023-07-20T09:24:47;24.50;48.40
30467;DHT22;17258;52.560;13.046;2023-07-20T09:34:51;24.40;48.10
30467;DHT22;17258;52.560;13.046;2023-07-20T09:44:53;24.10;48.30
30467;DHT22;17258;52.560;13.046;2023-07-20T09:54:54;23.90;48.50
30467;DHT22;17258;52.560;13.046;2023-07-20T10:04:56;23.70;48.40
30467;DHT22;17258;52.560;13.046;2023-07-20T10:25:12;23.50;49.00
30467;DHT22;17258;52.560;13.046;2023-07-20T10:35:17;23.50;49.40
30467;DHT22;17258;52.560;13.046;2023-07-20T10:45:18;23.60;49.40
30467;DHT22;17258;52.560;13.046;2023-07-20T10:55:19;23.70;48.80
30467;DHT22;17258;52.560;13.046;2023-07-20T11:05:38;23.80;48.70
30467;DHT22;17258;52.560;13.046;2023-07-20T11:25:56;24.10;49.50
30467;DHT22;17258;52.560;13.046;2023-07-20T11:35:57;24.70;49.40
30467;DHT22;17258;52.560;13.046;2023-07-20T11:45:58;25.10;48.30
30467;DHT22;17258;52.560;13.046;2023-07-20T11:55:59;25.30;47.80
30467;DHT22;17258;52.560;13.046;2023-07-20T12:06:07;25.20;47.20
30467;DHT22;17258;52.560;13.046;2023-07-20T12:16:16;25.20;47.20
30467;DHT22;17258;52.560;13.046;2023-07-20T12:26:17;25.20;47.10
30467;DHT22;17258;52.560;13.046;2023-07-20T12:36:18;25.40;47.20
30467;DHT22;17258;52.560;13.046;2023-07-20T12:46:19;25.90;46.70
30467;DHT22;17258;52.560;13.046;2023-07-20T12:56:19;26.50;46.50
30467;DHT22;17258;52.560;13.046;2023-07-20T13:06:20;27.10;46.10
30467;DHT22;17258;52.560;13.046;2023-07-20T13:16:22;27.70;45.90
30467;DHT22;17258;52.560;13.046;2023-07-20T13:26:22;28.30;44.60
30467;DHT22;17258;52.560;13.046;2023-07-20T13:36:23;28.60;43.40
30467;DHT22;17258;52.560;13.046;2023-07-20T13:46:24;28.60;42.90
30467;DHT22;17258;52.560;13.046;2023-07-20T13:56:24;28.60;43.00
30467;DHT22;17258;52.560;13.046;2023-07-20T14:06:25;28.80;42.20
30467;DHT22;17258;52.560;13.046;2023-07-20T14:16:26;29.10;41.90
30467;DHT22;17258;52.560;13.046;2023-07-20T14:26:26;29.30;41.70
30467;DHT22;17258;52.560;13.046;2023-07-20T14:36:27;29.60;41.00
30467;DHT22;17258;52.560;13.046;2023-07-20T14:46:28;29.70;40.40
30467;DHT22;17258;52.560;13.046;2023-07-20T14:56:28;29.80;39.30
30467;DHT22;17258;52.560;13.046;2023-07-20T15:06:29;29.80;39.30
30467;DHT22;17258;52.560;13.046;2023-07-20T15:16:30;29.60;39.00
30467;DHT22;17258;52.560;13.046;2023-07-20T15:26:31;29.40;38.80
30467;DHT22;17258;52.560;13.046;2023-07-20T15:36:33;29.50;39.10
30467;DHT22;17258;52.560;13.046;2023-07-20T15:56:41;30.00;38.50
30467;DHT22;17258;52.560;13.046;2023-07-20T16:06:43;30.00;38.30
30467;DHT22;17258;52.560;13.046;2023-07-20T16:16:43;29.90;37.70
30467;DHT22;17258;52.560;13.046;2023-07-20T16:26:44;29.60;37.80
30467;DHT22;17258;52.560;13.046;2023-07-20T16:36:45;29.40;38.10
30467;DHT22;17258;52.560;13.046;2023-07-20T16:46:45;29.30;37.80
30467;DHT22;17258;52.560;13.046;2023-07-20T16:56:46;29.10;38.20
30467;DHT22;17258;52.560;13.046;2023-07-20T17:06:47;29.10;38.50
30467;DHT22;17258;52.560;13.046;2023-07-20T17:16:48;29.10;38.30
30467;DHT22;17258;52.560;13.046;2023-07-20T17:26:49;29.20;38.00
30467;DHT22;17258;52.560;13.046;2023-07-20T17:36:50;29.30;37.90
30467;DHT22;17258;52.560;13.046;2023-07-20T17:46:50;29.30;38.00
30467;DHT22;17258;52.560;13.046;2023-07-20T17:56:51;29.30;38.00
30467;DHT22;17258;52.560;13.046;2023-07-20T18:06:52;29.20;37.70
30467;DHT22;17258;52.560;13.046;2023-07-20T18:16:52;29.00;37.60
30467;DHT22;17258;52.560;13.046;2023-07-20T18:26:53;28.60;37.60
30467;DHT22;17258;52.560;13.046;2023-07-20T18:36:53;28.20;37.60
30467;DHT22;17258;52.560;13.046;2023-07-20T18:46:54;27.80;37.90
30467;DHT22;17258;52.560;13.046;2023-07-20T18:56:56;27.40;38.10
30467;DHT22;17258;52.560;13.046;2023-07-20T19:06:57;27.10;38.20
30467;DHT22;17258;52.560;13.046;2023-07-20T19:16:58;26.80;38.50
30467;DHT22;17258;52.560;13.046;2023-07-20T19:26:58;26.40;38.70
30467;DHT22;17258;52.560;13.046;2023-07-20T19:36:59;26.00;38.80
30467;DHT22;17258;52.560;13.046;2023-07-20T19:47:01;25.70;39.00
30467;DHT22;17258;52.560;13.046;2023-07-20T19:57:02;25.30;39.20
30467;DHT22;17258;52.560;13.046;2023-07-20T20:07:03;24.90;39.30
30467;DHT22;17258;52.560;13.046;2023-07-20T20:17:10;24.50;39.60
30467;DHT22;17258;52.560;13.046;2023-07-20T20:27:10;24.10;39.80
30467;DHT22;17258;52.560;13.046;2023-07-20T20:37:11;23.80;40.10
30467;DHT22;17258;52.560;13.046;2023-07-20T20:47:12;23.40;40.30
30467;DHT22;17258;52.560;13.046;2023-07-20T20:57:14;23.10;40.60
30467;DHT22;17258;52.560;13.046;2023-07-20T21:07:15;22.80;40.90
30467;DHT22;17258;52.560;13.046;2023-07-20T21:17:15;22.60;41.20
30467;DHT22;17258;52.560;13.046;2023-07-20T21:27:16;22.30;41.30
30467;DHT22;17258;52.560;13.046;2023-07-20T21:37:17;22.10;41.50
30467;DHT22;17258;52.560;13.046;2023-07-20T21:47:17;21.80;41.70
30467;DHT22;17258;52.560;13.046;2023-07-20T21:57:19;21.50;41.90
30467;DHT22;17258;52.560;13.046;2023-07-20T22:07:20;21.30;42.10
30467;DHT22;17258;52.560;13.046;2023-07-20T22:17:21;21.10;42.30
30467;DHT22;17258;52.560;13.046;2023-07-20T22:27:21;20.90;42.50
30467;DHT22;17258;52.560;13.046;2023-07-20T22:37:22;20.70;42.70
30467;DHT22;17258;52.560;13.046;2023-07-20T22:47:23;20.50;43.00
30467;DHT22;17258;52.560;13.046;2023-07-20T22:57:23;20.20;43.10
30467;DHT22;17258;52.560;13.046;2023-07-20T23:07:24;20.10;43.30
30467;DHT22;17258;52.560;13.046;2023-07-20T23:17:25;19.90;43.50
30467;DHT22;17258;52.560;13.046;2023-07-20T23:27:25;19.70;43.70
30467;DHT22;17258;52.560;13.046;2023-07-20T23:37:26;19.60;43.80
30467;DHT22;17258;52.560;13.046;2023-07-20T23:47:27;19.40;44.00
30467;DHT22;17258;52.560;13.046;2023-07-20T23:57:28;19.30;44.20
